Fort Myers, FL (33919)

1:33 PM EST on January 26, 2015 (GMT -0500)
Heritage Cove | Change Station
CLOSE
Current Station
Personal Weather Station
Location: Fort Myers, FL
Elevation: 9 ft
Nearby Weather Stations

Elev 9 ft 26.54 °N, 81.91 °W | Updated 3 minutes ago

Partly Cloudy
Partly Cloudy
71.2 °F
Feels Like 77 °F
N
2.0
Wind Variable Wind from NNW
Gusts 8.0 mph

Today
High -- | Low -- °F
--% Chance of Precip.
Yesterday
High -- | Low -- °F
Precip. -- in
7:15 AM 6:05 PM
Waxing Crescent, 45% visible
Pressure 29.91 in
Visibility 10.0 miles
Clouds Scattered Clouds 4900 ft
Heat Index 77 °F
Dew Point 54 °F
Humidity 55%
Rainfall 0.05 in
Snow Depth Not available.
UV 6 out of 12
Pollen 6.00 out of 12
Air Quality Not available.
Flu Activity Not available.
METAR KFMY 261753Z 28018G30KT 10SM SCT049 22/09 A2991 RMK AO2 PK WND 29030/1746 SLP129 60006 T02170094 10222 20161 58016

More Conditions Fewer Conditions

Pressure 29.91 in
Visibility 10.0 miles
Clouds Scattered Clouds 4900 ft
Heat Index 77 °F
Dew Point 54 °F
Humidity 55%
Rainfall 0.05 in
Snow Depth Not available.
UV 6 out of 12
Pollen 6.00 out of 12
Air Quality Not available.
Flu Activity Not available.
METAR KFMY 261753Z 28018G30KT 10SM SCT049 22/09 A2991 RMK AO2 PK WND 29030/1746 SLP129 60006 T02170094 10222 20161 58016

More Conditions Fewer Conditions

10-Day Weather Forecast

Almanac

Astronomy

Jan. 26, 2015 Rise Set
Actual Time
Civil Twilight
Nautical Twilight
Astronomical Twilight
Moon
Length of Visible Light
Length of Day
Tomorrow will be .
, % of the Moon is Illuminated

Today's Extremes

State Highs State Lows

Community

WunderPhotos

Upload Photos

1,790,309 photos uploaded!

WunderBlogs® & News

Nearby

Air Quality

  Air Quality AQ Index Pollutant
Not available.

Snow Depth

Station Depth Elevation

Earthquake Activity

City Distance Mag. Time & Date
Minimum magnitude displayed is 2.5.

Coastal Water Temperatures

Place Temperature

Nearby Weather Stations